sensor_id;sensor_type;location;lat;lon;timestamp;temperature;humidity
56256;DHT22;57229;51.432;-2.598;2022-09-17T00:01:14;16.40;81.80
56256;DHT22;57229;51.432;-2.598;2022-09-17T00:03:42;16.30;82.90
56256;DHT22;57229;51.432;-2.598;2022-09-17T00:06:10;16.30;83.00
56256;DHT22;57229;51.432;-2.598;2022-09-17T00:08:39;16.30;82.10
56256;DHT22;57229;51.432;-2.598;2022-09-17T00:11:10;16.30;82.40
56256;DHT22;57229;51.432;-2.598;2022-09-17T00:13:36;16.30;82.40
56256;DHT22;57229;51.432;-2.598;2022-09-17T00:16:03;16.30;83.20
56256;DHT22;57229;51.432;-2.598;2022-09-17T00:18:28;16.20;83.50
56256;DHT22;57229;51.432;-2.598;2022-09-17T00:20:54;16.10;83.90
56256;DHT22;57229;51.432;-2.598;2022-09-17T00:23:20;16.10;84.00
56256;DHT22;57229;51.432;-2.598;2022-09-17T00:25:46;16.10;83.50
56256;DHT22;57229;51.432;-2.598;2022-09-17T00:28:13;16.00;84.30
56256;DHT22;57229;51.432;-2.598;2022-09-17T00:30:43;15.40;83.60
56256;DHT22;57229;51.432;-2.598;2022-09-17T00:33:11;15.90;84.10
56256;DHT22;57229;51.432;-2.598;2022-09-17T00:35:37;15.90;84.30
56256;DHT22;57229;51.432;-2.598;2022-09-17T00:38:04;15.80;83.40
56256;DHT22;57229;51.432;-2.598;2022-09-17T00:40:29;15.80;83.90
56256;DHT22;57229;51.432;-2.598;2022-09-17T00:42:55;15.80;84.00
56256;DHT22;57229;51.432;-2.598;2022-09-17T00:45:21;15.80;84.10
56256;DHT22;57229;51.432;-2.598;2022-09-17T00:48:01;15.80;85.20
56256;DHT22;57229;51.432;-2.598;2022-09-17T00:50:31;15.80;84.40
56256;DHT22;57229;51.432;-2.598;2022-09-17T00:53:03;15.70;83.90
56256;DHT22;57229;51.432;-2.598;2022-09-17T00:55:31;15.70;84.10
56256;DHT22;57229;51.432;-2.598;2022-09-17T00:58:00;15.70;84.70
56256;DHT22;57229;51.432;-2.598;2022-09-17T01:00:28;15.70;84.80
56256;DHT22;57229;51.432;-2.598;2022-09-17T01:02:55;15.70;85.00
56256;DHT22;57229;51.432;-2.598;2022-09-17T01:05:30;15.60;85.70
56256;DHT22;57229;51.432;-2.598;2022-09-17T01:15:50;15.50;84.80
56256;DHT22;57229;51.432;-2.598;2022-09-17T01:32:30;15.40;85.10
56256;DHT22;57229;51.432;-2.598;2022-09-17T01:35:16;15.40;85.10
56256;DHT22;57229;51.432;-2.598;2022-09-17T01:43:37;15.30;85.30
56256;DHT22;57229;51.432;-2.598;2022-09-17T01:46:13;15.30;85.50
56256;DHT22;57229;51.432;-2.598;2022-09-17T01:48:44;15.30;85.60
56256;DHT22;57229;51.432;-2.598;2022-09-17T01:51:16;15.30;85.90
56256;DHT22;57229;51.432;-2.598;2022-09-17T01:53:56;15.30;86.90
56256;DHT22;57229;51.432;-2.598;2022-09-17T01:56:34;15.30;86.10
56256;DHT22;57229;51.432;-2.598;2022-09-17T01:59:08;15.30;86.30
56256;DHT22;57229;51.432;-2.598;2022-09-17T02:01:38;15.30;87.10
56256;DHT22;57229;51.432;-2.598;2022-09-17T02:04:28;15.30;86.60
56256;DHT22;57229;51.432;-2.598;2022-09-17T02:06:59;15.30;86.90
56256;DHT22;57229;51.432;-2.598;2022-09-17T02:09:39;15.20;86.20
56256;DHT22;57229;51.432;-2.598;2022-09-17T02:12:10;15.20;86.10
56256;DHT22;57229;51.432;-2.598;2022-09-17T02:14:48;15.10;87.10
56256;DHT22;57229;51.432;-2.598;2022-09-17T02:17:29;15.10;86.90
56256;DHT22;57229;51.432;-2.598;2022-09-17T02:19:57;15.10;88.10
56256;DHT22;57229;51.432;-2.598;2022-09-17T02:22:24;15.10;87.20
56256;DHT22;57229;51.432;-2.598;2022-09-17T02:25:17;15.00;86.60
56256;DHT22;57229;51.432;-2.598;2022-09-17T02:28:13;15.00;86.80
56256;DHT22;57229;51.432;-2.598;2022-09-17T02:30:40;15.00;86.10
56256;DHT22;57229;51.432;-2.598;2022-09-17T02:33:08;15.00;86.50
56256;DHT22;57229;51.432;-2.598;2022-09-17T02:35:36;15.00;87.10
56256;DHT22;57229;51.432;-2.598;2022-09-17T02:38:03;15.00;86.40
56256;DHT22;57229;51.432;-2.598;2022-09-17T02:40:35;15.00;86.40
56256;DHT22;57229;51.432;-2.598;2022-09-17T02:51:39;14.90;86.60
56256;DHT22;57229;51.432;-2.598;2022-09-17T03:02:11;14.90;87.00
56256;DHT22;57229;51.432;-2.598;2022-09-17T03:04:42;14.90;87.00
56256;DHT22;57229;51.432;-2.598;2022-09-17T03:07:12;14.80;87.80
56256;DHT22;57229;51.432;-2.598;2022-09-17T03:09:38;14.80;86.90
56256;DHT22;57229;51.432;-2.598;2022-09-17T03:12:09;14.80;88.80
56256;DHT22;57229;51.432;-2.598;2022-09-17T03:14:35;14.80;87.80
56256;DHT22;57229;51.432;-2.598;2022-09-17T03:17:00;14.80;87.20
56256;DHT22;57229;51.432;-2.598;2022-09-17T03:19:26;14.70;87.00
56256;DHT22;57229;51.432;-2.598;2022-09-17T03:21:52;14.70;86.90
56256;DHT22;57229;51.432;-2.598;2022-09-17T03:24:19;14.70;86.90
56256;DHT22;57229;51.432;-2.598;2022-09-17T03:26:45;14.70;87.50
56256;DHT22;57229;51.432;-2.598;2022-09-17T03:29:12;14.70;87.40
56256;DHT22;57229;51.432;-2.598;2022-09-17T03:31:38;14.70;87.30
56256;DHT22;57229;51.432;-2.598;2022-09-17T03:34:04;14.70;87.70
56256;DHT22;57229;51.432;-2.598;2022-09-17T03:36:29;14.70;87.40
56256;DHT22;57229;51.432;-2.598;2022-09-17T03:38:56;14.60;89.00
56256;DHT22;57229;51.432;-2.598;2022-09-17T03:41:23;14.70;88.40
56256;DHT22;57229;51.432;-2.598;2022-09-17T03:43:52;14.70;88.60
56256;DHT22;57229;51.432;-2.598;2022-09-17T03:46:18;14.70;87.90
56256;DHT22;57229;51.432;-2.598;2022-09-17T03:48:44;14.70;88.00
56256;DHT22;57229;51.432;-2.598;2022-09-17T03:51:10;14.70;88.30
56256;DHT22;57229;51.432;-2.598;2022-09-17T03:53:36;14.70;88.50
56256;DHT22;57229;51.432;-2.598;2022-09-17T03:56:04;14.70;87.70
56256;DHT22;57229;51.432;-2.598;2022-09-17T03:58:30;14.60;87.90
56256;DHT22;57229;51.432;-2.598;2022-09-17T04:00:56;14.70;87.40
56256;DHT22;57229;51.432;-2.598;2022-09-17T04:03:28;14.60;87.50
56256;DHT22;57229;51.432;-2.598;2022-09-17T04:05:54;14.60;87.60
56256;DHT22;57229;51.432;-2.598;2022-09-17T04:08:20;14.60;87.40
56256;DHT22;57229;51.432;-2.598;2022-09-17T04:10:47;14.60;87.70
56256;DHT22;57229;51.432;-2.598;2022-09-17T04:13:14;14.60;90.70
56256;DHT22;57229;51.432;-2.598;2022-09-17T04:15:40;14.70;88.50
56256;DHT22;57229;51.432;-2.598;2022-09-17T04:18:06;14.70;89.20
56256;DHT22;57229;51.432;-2.598;2022-09-17T04:20:31;14.80;88.80
56256;DHT22;57229;51.432;-2.598;2022-09-17T04:22:57;14.70;87.30
56256;DHT22;57229;51.432;-2.598;2022-09-17T04:25:23;14.70;87.00
56256;DHT22;57229;51.432;-2.598;2022-09-17T04:27:49;14.60;89.70
56256;DHT22;57229;51.432;-2.598;2022-09-17T04:30:15;14.70;90.30
56256;DHT22;57229;51.432;-2.598;2022-09-17T04:32:43;14.70;87.20
56256;DHT22;57229;51.432;-2.598;2022-09-17T04:35:09;14.60;87.50
56256;DHT22;57229;51.432;-2.598;2022-09-17T04:37:34;14.60;90.40
56256;DHT22;57229;51.432;-2.598;2022-09-17T04:40:01;14.60;89.50
56256;DHT22;57229;51.432;-2.598;2022-09-17T04:42:26;14.70;90.90
56256;DHT22;57229;51.432;-2.598;2022-09-17T04:44:52;14.80;88.30
56256;DHT22;57229;51.432;-2.598;2022-09-17T04:47:18;14.80;86.90
56256;DHT22;57229;51.432;-2.598;2022-09-17T04:49:43;14.70;86.70
56256;DHT22;57229;51.432;-2.598;2022-09-17T04:52:09;14.60;87.80
56256;DHT22;57229;51.432;-2.598;2022-09-17T04:54:35;14.60;90.40
56256;DHT22;57229;51.432;-2.598;2022-09-17T04:57:00;14.60;87.10
56256;DHT22;57229;51.432;-2.598;2022-09-17T04:59:26;14.50;87.60
56256;DHT22;57229;51.432;-2.598;2022-09-17T05:01:52;14.50;90.80
56256;DHT22;57229;51.432;-2.598;2022-09-17T05:04:17;14.70;89.50
56256;DHT22;57229;51.432;-2.598;2022-09-17T05:06:43;14.80;87.70
56256;DHT22;57229;51.432;-2.598;2022-09-17T05:09:08;14.70;88.00
56256;DHT22;57229;51.432;-2.598;2022-09-17T05:11:34;14.70;87.60
56256;DHT22;57229;51.432;-2.598;2022-09-17T05:14:00;14.60;87.30
56256;DHT22;57229;51.432;-2.598;2022-09-17T05:16:26;14.50;88.30
56256;DHT22;57229;51.432;-2.598;2022-09-17T05:18:51;14.50;87.40
56256;DHT22;57229;51.432;-2.598;2022-09-17T05:21:18;14.40;87.80
56256;DHT22;57229;51.432;-2.598;2022-09-17T05:23:43;14.50;91.10
56256;DHT22;57229;51.432;-2.598;2022-09-17T05:26:09;14.60;90.80
56256;DHT22;57229;51.432;-2.598;2022-09-17T05:28:35;14.80;90.50
56256;DHT22;57229;51.432;-2.598;2022-09-17T05:31:01;14.90;88.10
56256;DHT22;57229;51.432;-2.598;2022-09-17T05:33:27;14.90;88.20
56256;DHT22;57229;51.432;-2.598;2022-09-17T05:35:53;14.80;86.00
56256;DHT22;57229;51.432;-2.598;2022-09-17T05:38:19;14.70;87.40
56256;DHT22;57229;51.432;-2.598;2022-09-17T05:40:45;14.60;89.90
56256;DHT22;57229;51.432;-2.598;2022-09-17T05:43:10;14.70;89.00
56256;DHT22;57229;51.432;-2.598;2022-09-17T05:45:37;14.60;86.50
56256;DHT22;57229;51.432;-2.598;2022-09-17T05:48:04;14.60;87.10
56256;DHT22;57229;51.432;-2.598;2022-09-17T05:50:31;14.50;87.70
56256;DHT22;57229;51.432;-2.598;2022-09-17T05:53:02;14.50;90.20
56256;DHT22;57229;51.432;-2.598;2022-09-17T05:55:28;14.50;89.00
56256;DHT22;57229;51.432;-2.598;2022-09-17T05:57:54;14.40;88.20
56256;DHT22;57229;51.432;-2.598;2022-09-17T06:00:19;14.50;90.60
56256;DHT22;57229;51.432;-2.598;2022-09-17T06:02:45;14.70;90.60
56256;DHT22;57229;51.432;-2.598;2022-09-17T06:05:11;14.80;90.40
56256;DHT22;57229;51.432;-2.598;2022-09-17T06:07:37;14.90;89.90
56256;DHT22;57229;51.432;-2.598;2022-09-17T06:10:05;14.90;88.10
56256;DHT22;57229;51.432;-2.598;2022-09-17T06:12:31;14.90;89.80
56256;DHT22;57229;51.432;-2.598;2022-09-17T06:14:59;15.00;88.00
56256;DHT22;57229;51.432;-2.598;2022-09-17T06:17:25;15.00;90.10
56256;DHT22;57229;51.432;-2.598;2022-09-17T06:19:51;15.10;89.80
56256;DHT22;57229;51.432;-2.598;2022-09-17T06:22:19;15.20;86.80
56256;DHT22;57229;51.432;-2.598;2022-09-17T06:24:45;15.10;86.00
56256;DHT22;57229;51.432;-2.598;2022-09-17T06:27:11;15.00;86.10
56256;DHT22;57229;51.432;-2.598;2022-09-17T06:29:36;14.90;90.10
56256;DHT22;57229;51.432;-2.598;2022-09-17T06:32:02;15.00;89.80
56256;DHT22;57229;51.432;-2.598;2022-09-17T06:34:27;15.00;88.10
56256;DHT22;57229;51.432;-2.598;2022-09-17T06:36:53;15.00;88.50
56256;DHT22;57229;51.432;-2.598;2022-09-17T06:39:19;14.90;87.90
56256;DHT22;57229;51.432;-2.598;2022-09-17T06:41:45;14.80;87.50
56256;DHT22;57229;51.432;-2.598;2022-09-17T06:44:11;14.80;90.20
56256;DHT22;57229;51.432;-2.598;2022-09-17T06:46:36;14.80;89.00
56256;DHT22;57229;51.432;-2.598;2022-09-17T06:49:02;14.80;87.30
56256;DHT22;57229;51.432;-2.598;2022-09-17T06:51:28;14.80;86.90
56256;DHT22;57229;51.432;-2.598;2022-09-17T06:53:53;14.70;86.60
56256;DHT22;57229;51.432;-2.598;2022-09-17T06:56:19;14.60;87.60
56256;DHT22;57229;51.432;-2.598;2022-09-17T06:58:45;14.50;87.80
56256;DHT22;57229;51.432;-2.598;2022-09-17T07:01:12;14.40;89.60
56256;DHT22;57229;51.432;-2.598;2022-09-17T07:03:37;14.30;89.40
56256;DHT22;57229;51.432;-2.598;2022-09-17T07:06:07;14.30;89.20
56256;DHT22;57229;51.432;-2.598;2022-09-17T07:08:37;14.30;89.90
56256;DHT22;57229;51.432;-2.598;2022-09-17T07:11:04;14.30;90.90
56256;DHT22;57229;51.432;-2.598;2022-09-17T07:13:30;14.40;89.60
56256;DHT22;57229;51.432;-2.598;2022-09-17T07:15:57;14.40;90.20
56256;DHT22;57229;51.432;-2.598;2022-09-17T07:18:24;14.50;88.90
56256;DHT22;57229;51.432;-2.598;2022-09-17T07:20:54;14.50;88.30
56256;DHT22;57229;51.432;-2.598;2022-09-17T07:23:25;14.50;90.10
56256;DHT22;57229;51.432;-2.598;2022-09-17T07:25:55;14.60;89.00
56256;DHT22;57229;51.432;-2.598;2022-09-17T07:28:22;14.60;88.50
56256;DHT22;57229;51.432;-2.598;2022-09-17T07:30:49;14.70;90.00
56256;DHT22;57229;51.432;-2.598;2022-09-17T07:33:17;14.80;89.10
56256;DHT22;57229;51.432;-2.598;2022-09-17T07:35:54;14.80;88.00
56256;DHT22;57229;51.432;-2.598;2022-09-17T07:38:21;14.80;89.00
56256;DHT22;57229;51.432;-2.598;2022-09-17T07:40:57;14.80;89.70
56256;DHT22;57229;51.432;-2.598;2022-09-17T07:43:29;14.80;89.70
56256;DHT22;57229;51.432;-2.598;2022-09-17T07:45:57;14.80;90.20
56256;DHT22;57229;51.432;-2.598;2022-09-17T07:48:23;14.80;90.20
56256;DHT22;57229;51.432;-2.598;2022-09-17T07:50:49;14.90;89.50
56256;DHT22;57229;51.432;-2.598;2022-09-17T07:53:15;14.90;89.80
56256;DHT22;57229;51.432;-2.598;2022-09-17T07:55:41;14.90;89.80
56256;DHT22;57229;51.432;-2.598;2022-09-17T07:58:07;15.00;90.00
56256;DHT22;57229;51.432;-2.598;2022-09-17T08:00:33;15.00;90.40
56256;DHT22;57229;51.432;-2.598;2022-09-17T08:02:58;15.10;90.00
56256;DHT22;57229;51.432;-2.598;2022-09-17T08:05:25;15.20;89.80
56256;DHT22;57229;51.432;-2.598;2022-09-17T08:07:51;15.30;89.90
56256;DHT22;57229;51.432;-2.598;2022-09-17T08:10:18;15.40;89.40
56256;DHT22;57229;51.432;-2.598;2022-09-17T08:12:49;15.40;88.70
56256;DHT22;57229;51.432;-2.598;2022-09-17T08:15:16;15.50;89.20
56256;DHT22;57229;51.432;-2.598;2022-09-17T08:17:43;15.60;89.20
56256;DHT22;57229;51.432;-2.598;2022-09-17T08:20:09;15.70;88.00
56256;DHT22;57229;51.432;-2.598;2022-09-17T08:22:35;15.70;89.40
56256;DHT22;57229;51.432;-2.598;2022-09-17T08:25:00;15.90;88.00
56256;DHT22;57229;51.432;-2.598;2022-09-17T08:27:29;16.00;89.00
56256;DHT22;57229;51.432;-2.598;2022-09-17T08:29:55;16.10;87.80
56256;DHT22;57229;51.432;-2.598;2022-09-17T08:32:21;16.20;88.20
56256;DHT22;57229;51.432;-2.598;2022-09-17T08:34:47;16.30;87.50
56256;DHT22;57229;51.432;-2.598;2022-09-17T08:37:12;16.50;87.00
56256;DHT22;57229;51.432;-2.598;2022-09-17T08:39:38;16.60;85.00
56256;DHT22;57229;51.432;-2.598;2022-09-17T08:44:45;16.90;85.10
56256;DHT22;57229;51.432;-2.598;2022-09-17T08:47:28;17.00;85.70
56256;DHT22;57229;51.432;-2.598;2022-09-17T08:50:01;17.20;86.40
56256;DHT22;57229;51.432;-2.598;2022-09-17T08:55:44;17.80;86.30
56256;DHT22;57229;51.432;-2.598;2022-09-17T09:00:57;18.30;84.20
56256;DHT22;57229;51.432;-2.598;2022-09-17T09:03:38;18.60;83.40
56256;DHT22;57229;51.432;-2.598;2022-09-17T09:06:09;18.90;82.70
56256;DHT22;57229;51.432;-2.598;2022-09-17T09:08:47;19.20;81.60
56256;DHT22;57229;51.432;-2.598;2022-09-17T09:11:20;19.40;80.80
56256;DHT22;57229;51.432;-2.598;2022-09-17T09:13:50;19.60;80.10
56256;DHT22;57229;51.432;-2.598;2022-09-17T09:16:25;20.00;79.30
56256;DHT22;57229;51.432;-2.598;2022-09-17T09:19:00;20.40;77.80
56256;DHT22;57229;51.432;-2.598;2022-09-17T09:21:44;21.00;76.30
56256;DHT22;57229;51.432;-2.598;2022-09-17T09:24:24;21.60;74.90
56256;DHT22;57229;51.432;-2.598;2022-09-17T09:27:13;22.10;73.40
56256;DHT22;57229;51.432;-2.598;2022-09-17T09:30:01;22.50;72.20
56256;DHT22;57229;51.432;-2.598;2022-09-17T09:35:21;23.20;70.40
56256;DHT22;57229;51.432;-2.598;2022-09-17T09:41:07;23.60;69.70
56256;DHT22;57229;51.432;-2.598;2022-09-17T09:49:07;24.20;67.80
56256;DHT22;57229;51.432;-2.598;2022-09-17T09:51:43;24.40;67.70
56256;DHT22;57229;51.432;-2.598;2022-09-17T09:54:29;24.50;67.40
56256;DHT22;57229;51.432;-2.598;2022-09-17T09:57:03;24.60;67.10
56256;DHT22;57229;51.432;-2.598;2022-09-17T09:59:32;24.60;66.70
56256;DHT22;57229;51.432;-2.598;2022-09-17T10:02:00;24.70;66.50
56256;DHT22;57229;51.432;-2.598;2022-09-17T10:04:28;24.80;66.30
56256;DHT22;57229;51.432;-2.598;2022-09-17T10:07:10;24.80;66.10
56256;DHT22;57229;51.432;-2.598;2022-09-17T10:09:38;24.90;66.00
56256;DHT22;57229;51.432;-2.598;2022-09-17T10:14:38;25.00;65.50
56256;DHT22;57229;51.432;-2.598;2022-09-17T10:17:37;25.00;65.60
56256;DHT22;57229;51.432;-2.598;2022-09-17T10:22:39;24.80;66.10
56256;DHT22;57229;51.432;-2.598;2022-09-17T10:28:27;24.80;66.10
56256;DHT22;57229;51.432;-2.598;2022-09-17T10:31:04;24.90;65.70
56256;DHT22;57229;51.432;-2.598;2022-09-17T10:33:33;25.00;65.40
56256;DHT22;57229;51.432;-2.598;2022-09-17T10:36:01;25.20;65.20
56256;DHT22;57229;51.432;-2.598;2022-09-17T10:38:33;25.20;65.20
56256;DHT22;57229;51.432;-2.598;2022-09-17T10:43:38;24.90;65.40
56256;DHT22;57229;51.432;-2.598;2022-09-17T10:46:04;24.80;65.70
56256;DHT22;57229;51.432;-2.598;2022-09-17T10:48:38;24.90;65.60
56256;DHT22;57229;51.432;-2.598;2022-09-17T10:51:04;25.00;65.30
56256;DHT22;57229;51.432;-2.598;2022-09-17T10:53:51;25.20;65.10
56256;DHT22;57229;51.432;-2.598;2022-09-17T10:56:28;25.30;64.70
56256;DHT22;57229;51.432;-2.598;2022-09-17T10:59:22;25.10;64.80
56256;DHT22;57229;51.432;-2.598;2022-09-17T11:04:24;23.80;67.60
56256;DHT22;57229;51.432;-2.598;2022-09-17T11:09:52;24.00;67.40
56256;DHT22;57229;51.432;-2.598;2022-09-17T11:15:26;24.20;66.70
56256;DHT22;57229;51.432;-2.598;2022-09-17T11:32:24;23.90;67.90
56256;DHT22;57229;51.432;-2.598;2022-09-17T11:35:11;24.20;67.50
56256;DHT22;57229;51.432;-2.598;2022-09-17T11:38:33;24.40;67.10
56256;DHT22;57229;51.432;-2.598;2022-09-17T11:46:29;24.40;66.90
56256;DHT22;57229;51.432;-2.598;2022-09-17T11:51:39;24.10;67.10
56256;DHT22;57229;51.432;-2.598;2022-09-17T11:56:56;23.90;67.90
56256;DHT22;57229;51.432;-2.598;2022-09-17T12:01:57;23.80;68.20
56256;DHT22;57229;51.432;-2.598;2022-09-17T12:04:29;23.80;68.50
56256;DHT22;57229;51.432;-2.598;2022-09-17T12:07:09;23.70;68.60
56256;DHT22;57229;51.432;-2.598;2022-09-17T12:09:39;23.70;68.50
56256;DHT22;57229;51.432;-2.598;2022-09-17T12:12:17;23.70;68.40
56256;DHT22;57229;51.432;-2.598;2022-09-17T12:14:57;23.70;68.50
56256;DHT22;57229;51.432;-2.598;2022-09-17T12:17:39;23.60;68.60
56256;DHT22;57229;51.432;-2.598;2022-09-17T12:20:19;23.60;68.50
56256;DHT22;57229;51.432;-2.598;2022-09-17T12:22:49;23.60;69.60
56256;DHT22;57229;51.432;-2.598;2022-09-17T12:25:15;23.60;69.00
56256;DHT22;57229;51.432;-2.598;2022-09-17T12:30:18;23.60;69.50
56256;DHT22;57229;51.432;-2.598;2022-09-17T12:38:53;23.60;73.50
56256;DHT22;57229;51.432;-2.598;2022-09-17T12:41:45;23.60;74.30
56256;DHT22;57229;51.432;-2.598;2022-09-17T12:59:56;23.60;71.60
56256;DHT22;57229;51.432;-2.598;2022-09-17T13:02:27;23.00;71.80
56256;DHT22;57229;51.432;-2.598;2022-09-17T13:05:20;23.70;71.40
56256;DHT22;57229;51.432;-2.598;2022-09-17T13:15:49;23.70;70.40
56256;DHT22;57229;51.432;-2.598;2022-09-17T13:18:46;23.70;70.10
56256;DHT22;57229;51.432;-2.598;2022-09-17T13:21:22;23.80;70.00
56256;DHT22;57229;51.432;-2.598;2022-09-17T13:23:50;23.80;70.40
56256;DHT22;57229;51.432;-2.598;2022-09-17T13:26:19;23.90;70.00
56256;DHT22;57229;51.432;-2.598;2022-09-17T13:28:50;23.90;70.00
56256;DHT22;57229;51.432;-2.598;2022-09-17T13:34:01;24.00;68.20
56256;DHT22;57229;51.432;-2.598;2022-09-17T13:36:45;24.00;67.40
56256;DHT22;57229;51.432;-2.598;2022-09-17T13:42:15;23.90;68.20
56256;DHT22;57229;51.432;-2.598;2022-09-17T13:45:05;23.90;67.70
56256;DHT22;57229;51.432;-2.598;2022-09-17T13:47:33;24.00;68.80
56256;DHT22;57229;51.432;-2.598;2022-09-17T13:50:03;24.00;67.40
56256;DHT22;57229;51.432;-2.598;2022-09-17T13:52:32;24.10;67.40
56256;DHT22;57229;51.432;-2.598;2022-09-17T13:55:00;24.10;67.30
56256;DHT22;57229;51.432;-2.598;2022-09-17T13:57:26;24.10;67.90
56256;DHT22;57229;51.432;-2.598;2022-09-17T13:59:55;24.20;67.10
56256;DHT22;57229;51.432;-2.598;2022-09-17T14:02:28;24.30;66.80
56256;DHT22;57229;51.432;-2.598;2022-09-17T14:04:55;24.40;66.00
56256;DHT22;57229;51.432;-2.598;2022-09-17T14:07:46;24.50;65.60
56256;DHT22;57229;51.432;-2.598;2022-09-17T14:17:54;24.60;67.40
56256;DHT22;57229;51.432;-2.598;2022-09-17T14:20:21;24.50;70.70
56256;DHT22;57229;51.432;-2.598;2022-09-17T14:23:01;24.50;70.40
56256;DHT22;57229;51.432;-2.598;2022-09-17T14:25:44;24.60;70.30
56256;DHT22;57229;51.432;-2.598;2022-09-17T14:28:31;24.60;72.00
56256;DHT22;57229;51.432;-2.598;2022-09-17T14:31:00;24.60;71.40
56256;DHT22;57229;51.432;-2.598;2022-09-17T14:33:29;24.70;70.80
56256;DHT22;57229;51.432;-2.598;2022-09-17T14:36:10;24.80;69.50
56256;DHT22;57229;51.432;-2.598;2022-09-17T14:38:46;24.60;69.80
56256;DHT22;57229;51.432;-2.598;2022-09-17T14:46:22;24.60;68.40
56256;DHT22;57229;51.432;-2.598;2022-09-17T14:48:48;24.60;69.20
56256;DHT22;57229;51.432;-2.598;2022-09-17T14:53:48;24.60;68.30
56256;DHT22;57229;51.432;-2.598;2022-09-17T14:56:19;24.70;66.80
56256;DHT22;57229;51.432;-2.598;2022-09-17T14:58:48;24.70;67.10
56256;DHT22;57229;51.432;-2.598;2022-09-17T15:01:26;24.70;66.90
56256;DHT22;57229;51.432;-2.598;2022-09-17T15:04:21;24.70;66.50
56256;DHT22;57229;51.432;-2.598;2022-09-17T15:06:47;24.70;66.00
56256;DHT22;57229;51.432;-2.598;2022-09-17T15:09:25;24.70;66.20
56256;DHT22;57229;51.432;-2.598;2022-09-17T15:11:53;24.70;65.30
56256;DHT22;57229;51.432;-2.598;2022-09-17T15:14:22;24.60;66.20
56256;DHT22;57229;51.432;-2.598;2022-09-17T15:16:53;24.60;67.10
56256;DHT22;57229;51.432;-2.598;2022-09-17T15:21:56;24.60;67.10
56256;DHT22;57229;51.432;-2.598;2022-09-17T15:24:48;24.60;67.30
56256;DHT22;57229;51.432;-2.598;2022-09-17T15:30:12;24.50;67.80
56256;DHT22;57229;51.432;-2.598;2022-09-17T15:32:41;24.50;67.30
56256;DHT22;57229;51.432;-2.598;2022-09-17T15:35:17;24.50;67.60
56256;DHT22;57229;51.432;-2.598;2022-09-17T15:37:45;24.50;67.50
56256;DHT22;57229;51.432;-2.598;2022-09-17T15:40:22;24.50;67.80
56256;DHT22;57229;51.432;-2.598;2022-09-17T15:42:51;24.50;67.80
56256;DHT22;57229;51.432;-2.598;2022-09-17T15:45:26;24.40;67.50
56256;DHT22;57229;51.432;-2.598;2022-09-17T15:47:57;24.40;67.60
56256;DHT22;57229;51.432;-2.598;2022-09-17T15:50:27;24.40;67.60
56256;DHT22;57229;51.432;-2.598;2022-09-17T15:53:23;24.40;67.90
56256;DHT22;57229;51.432;-2.598;2022-09-17T15:58:29;24.30;68.10
56256;DHT22;57229;51.432;-2.598;2022-09-17T16:08:44;24.20;68.50
56256;DHT22;57229;51.432;-2.598;2022-09-17T16:11:12;24.10;68.70
56256;DHT22;57229;51.432;-2.598;2022-09-17T16:13:38;24.10;68.80
56256;DHT22;57229;51.432;-2.598;2022-09-17T16:16:04;24.00;69.00
56256;DHT22;57229;51.432;-2.598;2022-09-17T16:18:30;23.90;69.20
56256;DHT22;57229;51.432;-2.598;2022-09-17T16:20:56;23.90;69.20
56256;DHT22;57229;51.432;-2.598;2022-09-17T16:23:22;23.80;69.50
56256;DHT22;57229;51.432;-2.598;2022-09-17T16:25:48;23.70;69.80
56256;DHT22;57229;51.432;-2.598;2022-09-17T16:28:17;23.60;69.90
56256;DHT22;57229;51.432;-2.598;2022-09-17T16:30:45;23.50;69.90
56256;DHT22;57229;51.432;-2.598;2022-09-17T16:33:13;23.40;70.80
56256;DHT22;57229;51.432;-2.598;2022-09-17T16:35:40;23.30;70.40
56256;DHT22;57229;51.432;-2.598;2022-09-17T16:38:06;23.20;70.60
56256;DHT22;57229;51.432;-2.598;2022-09-17T16:40:33;23.10;70.90
56256;DHT22;57229;51.432;-2.598;2022-09-17T16:43:00;23.00;71.10
56256;DHT22;57229;51.432;-2.598;2022-09-17T16:45:27;22.90;70.70
56256;DHT22;57229;51.432;-2.598;2022-09-17T16:47:53;22.80;70.30
56256;DHT22;57229;51.432;-2.598;2022-09-17T16:50:19;22.70;71.00
56256;DHT22;57229;51.432;-2.598;2022-09-17T16:52:45;22.60;71.00
56256;DHT22;57229;51.432;-2.598;2022-09-17T16:55:15;22.50;71.10
56256;DHT22;57229;51.432;-2.598;2022-09-17T16:57:42;22.40;71.50
56256;DHT22;57229;51.432;-2.598;2022-09-17T17:00:10;22.40;71.70
56256;DHT22;57229;51.432;-2.598;2022-09-17T17:02:40;22.30;72.30
56256;DHT22;57229;51.432;-2.598;2022-09-17T17:05:06;22.20;72.70
56256;DHT22;57229;51.432;-2.598;2022-09-17T17:07:34;22.20;73.10
56256;DHT22;57229;51.432;-2.598;2022-09-17T17:09:59;22.10;73.60
56256;DHT22;57229;51.432;-2.598;2022-09-17T17:12:26;22.00;74.00
56256;DHT22;57229;51.432;-2.598;2022-09-17T17:14:52;22.00;74.30
56256;DHT22;57229;51.432;-2.598;2022-09-17T17:17:19;22.00;74.40
56256;DHT22;57229;51.432;-2.598;2022-09-17T17:19:45;21.90;74.60
56256;DHT22;57229;51.432;-2.598;2022-09-17T17:22:12;21.90;74.90
56256;DHT22;57229;51.432;-2.598;2022-09-17T17:24:38;21.90;75.20
56256;DHT22;57229;51.432;-2.598;2022-09-17T17:27:03;21.90;75.30
56256;DHT22;57229;51.432;-2.598;2022-09-17T17:29:29;21.80;75.40
56256;DHT22;57229;51.432;-2.598;2022-09-17T17:31:55;21.80;75.60
56256;DHT22;57229;51.432;-2.598;2022-09-17T17:34:21;21.80;75.80
56256;DHT22;57229;51.432;-2.598;2022-09-17T17:36:49;21.70;75.80
56256;DHT22;57229;51.432;-2.598;2022-09-17T17:39:15;21.60;75.90
56256;DHT22;57229;51.432;-2.598;2022-09-17T17:41:41;21.60;76.10
56256;DHT22;57229;51.432;-2.598;2022-09-17T17:44:08;21.60;76.30
56256;DHT22;57229;51.432;-2.598;2022-09-17T17:46:40;21.50;76.40
56256;DHT22;57229;51.432;-2.598;2022-09-17T17:49:06;21.50;76.50
56256;DHT22;57229;51.432;-2.598;2022-09-17T17:51:33;21.50;76.60
56256;DHT22;57229;51.432;-2.598;2022-09-17T17:53:59;21.40;76.70
56256;DHT22;57229;51.432;-2.598;2022-09-17T17:56:25;21.40;76.70
56256;DHT22;57229;51.432;-2.598;2022-09-17T17:58:55;21.40;76.90
56256;DHT22;57229;51.432;-2.598;2022-09-17T18:01:26;21.30;77.00
56256;DHT22;57229;51.432;-2.598;2022-09-17T18:04:00;21.30;77.20
56256;DHT22;57229;51.432;-2.598;2022-09-17T18:06:27;21.30;77.40
56256;DHT22;57229;51.432;-2.598;2022-09-17T18:08:53;21.30;77.50
56256;DHT22;57229;51.432;-2.598;2022-09-17T18:11:19;21.20;77.60
56256;DHT22;57229;51.432;-2.598;2022-09-17T18:13:45;21.20;77.60
56256;DHT22;57229;51.432;-2.598;2022-09-17T18:16:14;21.20;77.80
56256;DHT22;57229;51.432;-2.598;2022-09-17T18:18:42;21.10;77.80
56256;DHT22;57229;51.432;-2.598;2022-09-17T18:21:10;21.10;77.60
56256;DHT22;57229;51.432;-2.598;2022-09-17T18:23:38;21.10;77.90
56256;DHT22;57229;51.432;-2.598;2022-09-17T18:26:06;21.00;78.00
56256;DHT22;57229;51.432;-2.598;2022-09-17T18:28:34;21.00;78.10
56256;DHT22;57229;51.432;-2.598;2022-09-17T18:33:42;21.00;78.00
56256;DHT22;57229;51.432;-2.598;2022-09-17T18:36:08;21.00;78.00